Time;durP1;ratioP1;P1;durP2;ratioP2;P2;SDS_P1;SDS_P2;PMS_P1;PMS_P2;Temp;Humidity;BMP_temperature;BMP_pressure;BME280_temperature;BME280_humidity;BME280_pressure;Samples;Min_cycle;Max_cycle;Signal;HPM_P1;HPM_P2
2022/01/22 00:01:30;;;;;;;6.85;2.50;;;;;;;-1.23;100.00;100701.91;5089076;28;20075;-72
2022/01/22 00:03:59;;;;;;;8.10;2.63;;;;;;;-1.26;100.00;100696.66;5089364;28;20048;-71
2022/01/22 00:06:27;;;;;;;4.82;2.13;;;;;;;-1.25;100.00;100693.22;5076605;28;20123;-71
2022/01/22 00:08:55;;;;;;;9.10;2.50;;;;;;;-1.26;100.00;100704.53;5075551;28;20379;-70
2022/01/22 00:11:28;;;;;;;5.68;2.35;;;;;;;-1.24;100.00;100700.19;5075505;28;20098;-69
2022/01/22 00:16:44;;;;;;;6.18;2.30;;;;;;;-1.22;100.00;100695.81;5075519;28;20044;-70
2022/01/22 00:19:12;;;;;;;9.40;2.45;;;;;;;-1.22;100.00;100701.03;5075528;28;20044;-71
2022/01/22 00:21:41;;;;;;;7.65;2.58;;;;;;;-1.17;100.00;100709.72;5075274;28;20158;-69
2022/01/22 00:24:11;;;;;;;7.60;2.88;;;;;;;-1.15;100.00;100699.25;5075665;28;20404;-69
2022/01/22 00:26:40;;;;;;;6.75;2.75;;;;;;;-1.13;100.00;100699.25;5074903;28;20044;-71
2022/01/22 00:29:10;;;;;;;4.80;1.98;;;;;;;-1.08;100.00;100681.75;5075425;28;20375;-72
2022/01/22 00:31:41;;;;;;;5.07;1.95;;;;;;;-1.08;100.00;100711.41;5074770;28;20049;-71
2022/01/22 00:34:11;;;;;;;6.32;2.80;;;;;;;-1.05;100.00;100682.63;5075293;28;20048;-73
2022/01/22 00:36:41;;;;;;;7.93;2.70;;;;;;;-1.06;100.00;100677.38;5075053;28;20167;-73
2022/01/22 00:39:09;;;;;;;5.22;2.15;;;;;;;-1.08;100.00;100682.63;5075258;28;20127;-72
2022/01/22 00:41:38;;;;;;;4.65;2.10;;;;;;;-1.07;100.00;100679.13;5074935;28;20120;-73
2022/01/22 00:44:07;;;;;;;5.05;2.38;;;;;;;-1.10;100.00;100676.53;5075181;28;20393;-73
2022/01/22 00:46:35;;;;;;;5.28;1.88;;;;;;;-1.06;100.00;100669.50;5074511;28;20067;-73
2022/01/22 00:49:04;;;;;;;5.60;2.50;;;;;;;-1.01;100.00;100686.06;5075153;28;20547;-72
2022/01/22 00:51:34;;;;;;;4.75;2.40;;;;;;;-0.99;100.00;100681.69;5074698;28;20047;-72
2022/01/22 00:54:02;;;;;;;6.78;2.80;;;;;;;-0.98;100.00;100678.19;5074708;28;20052;-72
2022/01/22 00:56:30;;;;;;;6.75;2.53;;;;;;;-1.01;100.00;100662.50;5074623;28;20481;-73
2022/01/22 00:59:01;;;;;;;12.43;3.30;;;;;;;-0.99;100.00;100671.22;5074904;28;20075;-72
2022/01/22 01:01:30;;;;;;;7.45;2.80;;;;;;;-0.98;100.00;100662.47;5074615;28;20041;-72
2022/01/22 01:04:02;;;;;;;7.15;2.85;;;;;;;-0.98;100.00;100662.47;5074806;28;20044;-73
2022/01/22 01:06:31;;;;;;;7.85;2.70;;;;;;;-0.94;100.00;100652.00;5074481;28;20099;-72
2022/01/22 01:09:03;;;;;;;5.82;2.50;;;;;;;-0.87;100.00;100652.81;5074439;28;20052;-73
2022/01/22 01:11:33;;;;;;;8.80;2.45;;;;;;;-0.90;100.00;100630.13;5056703;28;20139;-71
2022/01/22 01:14:04;;;;;;;6.65;2.58;;;;;;;-0.90;100.00;100639.75;5074553;28;20063;-71
2022/01/22 01:16:58;;;;;;;8.90;2.70;;;;;;;-0.88;100.00;100622.25;5073582;28;20049;-70
2022/01/22 01:33:25;;;;;;;4.20;1.77;;;;;;;-0.77;100.00;100583.78;5074275;28;20111;-71
2022/01/22 01:35:54;;;;;;;4.63;2.10;;;;;;;-0.85;100.00;100559.41;5074133;28;20059;-71
2022/01/22 01:38:23;;;;;;;7.18;2.13;;;;;;;-0.70;100.00;100567.09;5074104;28;20119;-70
2022/01/22 01:41:01;;;;;;;5.35;2.00;;;;;;;-0.65;100.00;100561.84;5073963;28;20048;-71
2022/01/22 01:43:34;;;;;;;7.10;2.08;;;;;;;-0.69;100.00;100545.25;5073471;28;20045;-71
2022/01/22 01:46:03;;;;;;;3.90;1.83;;;;;;;-0.67;100.00;100542.66;5074076;28;20045;-70
2022/01/22 01:48:37;;;;;;;5.88;1.90;;;;;;;-0.73;100.00;100533.06;5073547;28;20079;-71
2022/01/22 01:51:08;;;;;;;6.47;1.90;;;;;;;-0.70;100.00;100535.66;5074047;28;20048;-71
2022/01/22 01:53:50;;;;;;;6.78;1.92;;;;;;;-0.67;100.00;100521.69;5073238;28;20091;-71
2022/01/22 01:59:05;;;;;;;6.18;2.05;;;;;;;-0.61;100.00;100522.47;5073776;28;20139;-70
2022/01/22 02:01:34;;;;;;;6.03;2.08;;;;;;;-0.51;100.00;100509.28;5073125;28;20052;-71
2022/01/22 02:04:02;;;;;;;5.00;2.10;;;;;;;-0.52;100.00;100500.53;5073394;28;20044;-71
2022/01/22 02:06:30;;;;;;;6.75;2.47;;;;;;;-0.46;100.00;100497.88;5072935;28;20097;-71
2022/01/22 02:08:58;;;;;;;5.38;2.13;;;;;;;-0.42;100.00;100509.16;5073179;28;20044;-71
2022/01/22 02:11:29;;;;;;;7.97;1.92;;;;;;;-0.36;99.36;100498.63;5073215;28;20405;-72
2022/01/22 02:14:07;;;;;;;6.47;2.17;;;;;;;-0.38;99.98;100487.31;5073767;28;20051;-70
2022/01/22 02:24:59;;;;;;;5.03;2.17;;;;;;;-0.51;100.00;100488.31;5073574;28;20115;-71
2022/01/22 02:27:27;;;;;;;4.38;1.83;;;;;;;-0.40;100.00;100475.94;5073296;28;20478;-71
2022/01/22 02:29:55;;;;;;;4.15;1.95;;;;;;;-0.41;100.00;100474.22;5055254;28;20072;-71
2022/01/22 02:32:53;;;;;;;6.43;1.85;;;;;;;-0.46;100.00;100468.19;5073326;28;20044;-70
2022/01/22 02:35:27;;;;;;;3.17;1.60;;;;;;;-0.37;100.00;100452.34;5073179;28;20045;-70
2022/01/22 02:38:01;;;;;;;4.70;1.50;;;;;;;-0.34;100.00;100458.41;5072917;28;20052;-71
2022/01/22 02:40:35;;;;;;;4.97;1.85;;;;;;;-0.32;100.00;100450.50;5072986;28;20103;-76
2022/01/22 02:43:03;;;;;;;;;;;;;;;-0.27;100.00;100471.44;5073695;28;20079;-71
2022/01/22 02:45:32;;;;;;;6.68;1.90;;;;;;;-0.28;100.00;100467.94;5072494;28;19920;-73
2022/01/22 02:48:00;;;;;;;6.00;1.50;;;;;;;-0.24;100.00;100464.41;5072767;28;20045;-72
2022/01/22 02:50:29;;;;;;;6.15;1.85;;;;;;;-0.28;100.00;100457.47;5073111;28;20173;-72
2022/01/22 02:53:02;;;;;;;3.65;1.83;;;;;;;-0.31;100.00;100452.25;5072426;28;20055;-71
2022/01/22 02:55:30;;;;;;;;;;;;;;;-0.37;100.00;100447.09;5074863;28;20470;-76
2022/01/22 02:57:59;;;;;;;3.53;1.63;;;;;;;-0.37;100.00;100441.84;5072888;28;20312;-70
2022/01/22 03:00:27;;;;;;;4.43;1.60;;;;;;;-0.38;100.00;100448.84;5072923;28;20132;-73
2022/01/22 03:02:55;;;;;;;4.13;1.67;;;;;;;-0.33;100.00;100443.53;5072700;28;20090;-73
2022/01/22 03:05:24;;;;;;;10.95;2.05;;;;;;;-0.38;100.00;100424.41;5072861;28;20502;-73
2022/01/22 03:07:54;;;;;;;5.10;1.80;;;;;;;-0.39;100.00;100423.50;5072651;28;20040;-72
2022/01/22 03:10:26;;;;;;;5.75;1.77;;;;;;;-0.42;100.00;100417.44;5072621;28;20047;-71
2022/01/22 03:15:53;;;;;;;4.93;2.00;;;;;;;-0.35;100.00;100425.22;5070236;28;20045;-69
2022/01/22 03:18:35;;;;;;;5.75;1.55;;;;;;;-0.30;100.00;100433.00;5072805;28;20044;-71
2022/01/22 03:21:11;;;;;;;5.40;1.70;;;;;;;-0.28;100.00;100431.25;5074464;28;20563;-71
2022/01/22 03:29:18;;;;;;;3.78;1.80;;;;;;;-0.16;100.00;100411.88;5072724;28;20068;-71
2022/01/22 03:31:47;;;;;;;7.30;1.80;;;;;;;-0.19;100.00;100404.00;5072056;28;20072;-69
2022/01/22 03:34:15;;;;;;;5.35;1.58;;;;;;;-0.18;100.00;100390.91;5072566;28;20036;-71
2022/01/22 03:36:43;;;;;;;4.20;1.73;;;;;;;-0.16;100.00;100383.88;5071810;28;20478;-72
2022/01/22 03:39:11;;;;;;;4.38;1.65;;;;;;;-0.19;100.00;100383.94;5072673;28;20045;-71
2022/01/22 03:41:41;;;;;;;4.13;1.33;;;;;;;-0.14;100.00;100382.09;5075207;28;20075;-71
2022/01/22 03:44:11;;;;;;;1.52;1.02;;;;;;;-0.11;100.00;100371.56;5075994;28;20079;-71
2022/01/22 03:46:41;;;;;;;4.78;1.50;;;;;;;-0.05;100.00;100387.22;5076015;28;20067;-71
2022/01/22 03:49:10;;;;;;;4.97;1.50;;;;;;;-0.06;100.00;100387.25;5075907;28;20456;-71
2022/01/22 03:51:39;;;;;;;3.33;1.48;;;;;;;-0.13;100.00;100389.06;5075745;28;20044;-72
2022/01/22 03:54:07;;;;;;;3.72;1.23;;;;;;;-0.17;100.00;100386.53;5075670;28;20080;-72
2022/01/22 03:56:37;;;;;;;4.30;1.60;;;;;;;-0.20;100.00;100382.19;5075629;28;20037;-73
2022/01/22 03:59:07;;;;;;;3.60;1.58;;;;;;;-0.23;100.00;100373.50;5076047;28;20044;-73
2022/01/22 04:04:31;;;;;;;2.47;1.55;;;;;;;-0.29;100.00;100366.56;5075888;28;20044;-73
2022/01/22 04:09:46;;;;;;;5.75;1.70;;;;;;;-0.22;100.00;100362.13;5057284;28;20057;-72
2022/01/22 04:12:18;;;;;;;3.17;1.50;;;;;;;-0.17;100.00;100363.81;5075814;28;20059;-73
2022/01/22 04:14:54;;;;;;;3.88;1.75;;;;;;;-0.22;100.00;100363.00;5075250;28;20041;-73
2022/01/22 04:17:37;;;;;;;4.15;1.55;;;;;;;-0.19;100.00;100342.00;5075391;28;20040;-71
2022/01/22 04:25:42;;;;;;;4.03;1.50;;;;;;;-0.22;100.00;100347.25;5074971;28;20401;-72
2022/01/22 04:28:12;;;;;;;2.92;1.60;;;;;;;-0.27;100.00;100349.09;5075311;28;20119;-72
2022/01/22 04:30:42;;;;;;;5.43;1.77;;;;;;;-0.29;100.00;100353.47;5075747;28;20127;-71
2022/01/22 04:33:10;;;;;;;5.25;1.88;;;;;;;-0.41;100.00;100345.78;5075417;28;20561;-71
2022/01/22 04:35:38;;;;;;;3.85;1.77;;;;;;;-0.48;100.00;100339.78;5074992;28;20040;-72
2022/01/22 04:38:07;;;;;;;4.45;2.10;;;;;;;-0.50;100.00;100338.91;5074973;28;20051;-70
2022/01/22 04:40:35;;;;;;;4.78;1.80;;;;;;;-0.50;100.00;100341.53;5074941;28;20064;-70
2022/01/22 04:43:04;;;;;;;3.03;1.70;;;;;;;-0.56;100.00;100332.91;5075323;28;20123;-71
2022/01/22 04:45:46;;;;;;;5.82;2.00;;;;;;;-0.63;100.00;100346.09;5075233;28;20094;-72
2022/01/22 04:48:39;;;;;;;4.57;2.22;;;;;;;-0.75;100.00;100333.16;5075291;28;20123;-71
2022/01/22 04:56:39;;;;;;;5.78;2.63;;;;;;;-0.98;100.00;100327.31;5074585;28;20088;-71
2022/01/22 04:59:07;;;;;;;6.72;2.70;;;;;;;-0.91;100.00;100329.00;5074583;28;20486;-70
2022/01/22 05:01:36;;;;;;;4.63;2.47;;;;;;;-0.93;100.00;100330.75;5074834;28;20094;-70
2022/01/22 05:04:05;;;;;;;6.82;2.53;;;;;;;-0.96;100.00;100334.28;5074803;28;20051;-70
2022/01/22 05:06:33;;;;;;;6.55;2.25;;;;;;;-0.92;100.00;100335.13;5074653;28;20048;-71
2022/01/22 05:09:02;;;;;;;5.32;1.77;;;;;;;-1.01;100.00;100324.75;5074140;28;20049;-71
2022/01/22 05:11:30;;;;;;;5.05;2.65;;;;;;;-1.06;100.00;100330.06;5074334;28;20052;-71
2022/01/22 05:13:59;;;;;;;4.35;2.50;;;;;;;-0.95;100.00;100328.16;5074282;28;20052;-70
2022/01/22 05:16:27;;;;;;;5.38;2.15;;;;;;;-0.94;100.00;100334.28;5074159;28;20041;-70
2022/01/22 05:19:00;;;;;;;6.45;2.60;;;;;;;-0.94;100.00;100335.13;5074158;28;20375;-71
2022/01/22 05:21:33;;;;;;;5.07;2.13;;;;;;;-0.90;100.00;100330.72;5074614;28;20068;-71
2022/01/22 05:24:06;;;;;;;5.05;2.35;;;;;;;-0.84;100.00;100341.13;5074204;28;20052;-70
2022/01/22 05:32:27;;;;;;;5.10;2.45;;;;;;;-0.80;100.00;100340.19;5152168;27;20387;-71
2022/01/22 05:37:41;;;;;;;5.25;2.42;;;;;;;-0.77;100.00;100345.41;5131229;28;20043;-73
2022/01/22 05:40:11;;;;;;;4.72;2.35;;;;;;;-0.84;100.00;100335.03;5131350;28;20035;-71
2022/01/22 05:42:39;;;;;;;5.07;2.30;;;;;;;-0.89;100.00;100332.44;5131315;28;20047;-71
2022/01/22 05:45:08;;;;;;;6.63;2.38;;;;;;;-0.98;100.00;100332.56;5131271;28;20043;-71
2022/01/22 05:47:38;;;;;;;6.55;2.92;;;;;;;-0.96;100.00;100338.66;5131215;28;20092;-71
2022/01/22 05:50:13;;;;;;;5.57;2.53;;;;;;;-1.02;100.00;100326.50;5130907;28;20041;-71
2022/01/22 05:52:53;;;;;;;6.00;2.70;;;;;;;-1.08;100.00;100333.56;5131010;28;20484;-77
2022/01/22 05:55:42;;;;;;;5.80;2.90;;;;;;;-1.20;100.00;100331.94;5131178;28;20052;-72
2022/01/22 06:00:55;;;;;;;7.95;2.83;;;;;;;-1.37;100.00;100321.66;5130783;28;20050;-72
2022/01/22 06:03:25;;;;;;;6.38;2.80;;;;;;;-1.37;100.00;100329.50;5130739;28;20690;-71
2022/01/22 06:05:53;;;;;;;4.95;2.80;;;;;;;-1.29;100.00;100330.28;5130318;28;20430;-71
2022/01/22 06:08:22;;;;;;;5.05;2.50;;;;;;;-1.30;100.00;100336.41;5130611;28;20553;-71
2022/01/22 06:10:54;;;;;;;6.07;3.20;;;;;;;-1.28;100.00;100347.72;5130125;28;20482;-72
2022/01/22 06:13:30;;;;;;;6.60;3.23;;;;;;;-1.24;100.00;100336.34;5130926;28;20074;-71
2022/01/22 06:15:58;;;;;;;6.03;3.00;;;;;;;-1.22;100.00;100346.81;5130449;28;20303;-71
2022/01/22 06:18:30;;;;;;;7.68;3.25;;;;;;;-1.19;100.00;100337.16;5130444;28;20039;-71
2022/01/22 06:20:58;;;;;;;6.97;3.13;;;;;;;-1.16;100.00;100345.00;5130315;28;20126;-71
2022/01/22 06:23:26;;;;;;;5.88;3.30;;;;;;;-1.07;100.00;100338.75;5130367;28;20078;-71
2022/01/22 06:25:58;;;;;;;6.47;3.28;;;;;;;-1.06;100.00;100340.53;5129878;28;20088;-71
2022/01/22 06:28:26;;;;;;;7.35;3.30;;;;;;;-0.97;100.00;100345.63;5130540;28;20503;-71
2022/01/22 06:30:54;;;;;;;5.90;3.30;;;;;;;-1.11;100.00;100351.91;5129748;27;20048;-71
2022/01/22 06:33:23;;;;;;;5.93;3.38;;;;;;;-1.22;100.00;100360.75;5130441;28;20039;-70
2022/01/22 06:35:53;;;;;;;6.65;3.55;;;;;;;-1.28;100.00;100360.81;5129765;28;20039;-71
2022/01/22 06:38:22;;;;;;;6.38;3.92;;;;;;;-1.34;100.00;100367.88;5130560;28;20085;-71
2022/01/22 06:43:36;;;;;;;5.38;3.35;;;;;;;-1.20;100.00;100376.44;5098129;28;20051;-72
2022/01/22 06:46:04;;;;;;;6.45;3.10;;;;;;;-0.97;100.00;100368.31;5116024;28;20039;-71
2022/01/22 06:48:32;;;;;;;4.78;2.78;;;;;;;-1.03;100.00;100373.66;5116545;28;20040;-71
2022/01/22 06:51:03;;;;;;;6.05;2.95;;;;;;;-0.94;100.00;100370.94;5116002;28;20432;-72
2022/01/22 06:53:35;;;;;;;4.60;2.67;;;;;;;-0.95;100.00;100380.53;5116371;28;20127;-72
2022/01/22 06:56:05;;;;;;;5.20;2.40;;;;;;;-0.92;100.00;100374.41;5115755;28;20127;-72
2022/01/22 06:58:33;;;;;;;5.40;2.75;;;;;;;-0.85;100.00;100376.06;5115934;28;20075;-72
2022/01/22 07:01:01;;;;;;;5.25;2.75;;;;;;;-0.63;100.00;100382.75;5115790;28;20068;-72
2022/01/22 07:03:31;;;;;;;4.45;2.55;;;;;;;-0.60;100.00;100393.19;5115792;28;20062;-72
2022/01/22 07:05:59;;;;;;;4.57;2.63;;;;;;;-0.59;100.00;100389.69;5115759;28;20044;-72
2022/01/22 07:08:29;;;;;;;6.00;2.70;;;;;;;-0.50;100.00;100393.09;5116008;28;20040;-73
2022/01/22 07:10:57;;;;;;;6.95;2.50;;;;;;;-0.39;100.00;100392.03;5115252;28;20086;-73
2022/01/22 07:13:26;;;;;;;4.25;2.22;;;;;;;-0.42;100.00;100394.72;5116043;28;20051;-71
2022/01/22 07:15:54;;;;;;;5.35;2.60;;;;;;;-0.42;100.00;100394.72;5115534;28;20043;-71
2022/01/22 07:18:22;;;;;;;4.65;2.53;;;;;;;-0.41;100.00;100385.09;5115827;28;20504;-71
2022/01/22 07:20:52;;;;;;;5.57;2.50;;;;;;;-0.28;100.00;100389.31;5097377;28;20142;-71
2022/01/22 07:23:42;;;;;;;6.13;2.45;;;;;;;-0.19;100.00;100373.44;5115678;28;20035;-71
2022/01/22 07:26:10;;;;;;;4.68;2.38;;;;;;;-0.08;100.00;100382.03;5115229;28;20142;-71
2022/01/22 07:28:39;;;;;;;4.50;2.53;;;;;;;-0.04;100.00;100388.09;5115362;28;20071;-71
2022/01/22 07:31:07;;;;;;;4.88;2.50;;;;;;;0.04;100.00;100398.47;5115044;28;20058;-71
2022/01/22 07:33:36;;;;;;;5.93;2.33;;;;;;;0.13;100.00;100393.94;5115578;28;20053;-70
2022/01/22 07:36:05;;;;;;;4.93;2.63;;;;;;;0.09;100.00;100380.88;5115154;28;20439;-71
2022/01/22 07:38:37;;;;;;;5.22;2.50;;;;;;;0.15;100.00;100375.56;5115453;28;20122;-71
2022/01/22 07:41:07;;;;;;;3.67;2.15;;;;;;;0.15;100.00;100375.56;5114875;28;20043;-69
2022/01/22 07:43:38;;;;;;;4.18;2.30;;;;;;;0.25;100.00;100400.75;5115346;28;20071;-69
2022/01/22 07:46:09;;;;;;;4.65;2.53;;;;;;;0.27;100.00;100409.47;5114768;28;20043;-69
2022/01/22 07:48:38;;;;;;;4.60;2.70;;;;;;;0.26;100.00;100418.22;5115018;28;20474;-70
2022/01/22 07:51:06;;;;;;;3.92;2.15;;;;;;;0.32;100.00;100412.88;5114455;28;20054;-71
2022/01/22 07:53:34;;;;;;;4.40;2.60;;;;;;;0.27;100.00;100396.34;5114355;28;20036;-70
2022/01/22 07:56:03;;;;;;;6.35;2.55;;;;;;;0.37;100.00;100400.53;5114613;28;20044;-71
2022/01/22 07:58:31;;;;;;;5.03;2.78;;;;;;;0.36;100.00;100401.44;5114960;28;20059;-71
2022/01/22 08:01:01;;;;;;;6.07;2.92;;;;;;;0.41;100.00;100402.25;5114719;28;20040;-71
2022/01/22 08:03:29;;;;;;;6.63;2.80;;;;;;;0.38;100.00;100410.16;5114910;28;20035;-72
2022/01/22 08:05:58;;;;;;;5.45;2.72;;;;;;;0.50;100.00;100409.97;5114577;28;20381;-71
2022/01/22 08:08:26;;;;;;;4.40;2.97;;;;;;;0.46;100.00;100405.66;5115474;28;20071;-73
2022/01/22 08:10:56;;;;;;;5.18;2.78;;;;;;;0.34;100.00;100402.38;5114899;28;20408;-74
2022/01/22 08:13:24;;;;;;;5.25;2.85;;;;;;;0.17;100.00;100407.88;5114705;28;20388;-72
2022/01/22 08:15:52;;;;;;;5.15;2.70;;;;;;;0.09;100.00;100401.88;5118418;28;20071;-73
2022/01/22 08:18:22;;;;;;;4.53;2.92;;;;;;;0.02;100.00;100408.13;5115349;28;20469;-73
2022/01/22 08:20:51;;;;;;;7.15;3.00;;;;;;;0.07;100.00;100414.16;5114616;28;20123;-73
2022/01/22 08:23:20;;;;;;;5.70;2.63;;;;;;;0.24;100.00;100414.75;5114620;28;20472;-71
2022/01/22 08:25:49;;;;;;;3.55;2.20;;;;;;;0.21;100.00;100414.81;5114451;28;20507;-70
2022/01/22 08:31:20;;;;;;;4.20;2.47;;;;;;;0.23;100.00;100419.16;5113508;28;20163;-71
2022/01/22 08:36:41;;;;;;;4.43;2.28;;;;;;;0.41;100.00;100417.13;5114397;28;20092;-69
2022/01/22 08:39:10;;;;;;;4.82;2.70;;;;;;;0.39;100.00;100419.78;5113569;28;20048;-71
2022/01/22 08:41:38;;;;;;;4.00;2.22;;;;;;;0.51;100.00;100430.06;5113804;28;20036;-71
2022/01/22 08:44:07;;;;;;;5.53;2.47;;;;;;;0.52;100.00;100439.69;5113834;28;20098;-71
2022/01/22 08:46:35;;;;;;;5.57;2.55;;;;;;;0.57;100.00;100450.09;5114041;28;20126;-69
2022/01/22 08:49:06;;;;;;;4.28;2.20;;;;;;;0.51;100.00;100464.19;5113650;28;20043;-69
2022/01/22 08:51:37;;;;;;;4.88;2.22;;;;;;;0.49;100.00;100457.25;5113783;28;20040;-69
2022/01/22 08:54:06;;;;;;;5.50;2.75;;;;;;;0.50;100.00;100457.22;5113649;28;20044;-68
2022/01/22 08:56:35;;;;;;;5.47;2.50;;;;;;;0.62;100.00;100460.53;5113716;28;20044;-68
2022/01/22 08:59:05;;;;;;;5.90;3.17;;;;;;;0.63;100.00;100463.13;5113614;28;20039;-69
2022/01/22 09:01:34;;;;;;;6.43;2.83;;;;;;;0.60;100.00;100464.94;5113967;28;20056;-68
2022/01/22 09:04:02;;;;;;;6.32;3.08;;;;;;;0.80;100.00;100470.72;5113182;28;20419;-68
2022/01/22 09:06:32;;;;;;;5.88;2.95;;;;;;;0.91;100.00;100466.16;5113608;28;20039;-70
2022/01/22 09:09:08;;;;;;;3.72;1.83;;;;;;;1.00;100.00;100471.25;5113602;28;20134;-69
2022/01/22 09:11:39;;;;;;;6.15;2.40;;;;;;;1.04;100.00;100478.16;5113376;28;20100;-68
2022/01/22 09:14:10;;;;;;;5.10;2.45;;;;;;;1.10;100.00;100478.06;5112831;28;20043;-70
2022/01/22 09:16:40;;;;;;;3.70;2.40;;;;;;;1.19;100.00;100482.28;5113634;28;20373;-68
2022/01/22 09:19:11;;;;;;;4.10;2.40;;;;;;;1.13;100.00;100491.13;5113318;28;20455;-68
2022/01/22 09:21:44;;;;;;;5.18;2.70;;;;;;;1.19;100.00;100502.44;5113212;28;20135;-68
2022/01/22 09:24:15;;;;;;;4.60;2.25;;;;;;;1.16;100.00;100495.50;5112875;28;20040;-68
2022/01/22 09:26:44;;;;;;;4.00;2.15;;;;;;;1.18;100.00;100505.97;5113447;28;20050;-68
2022/01/22 09:29:12;;;;;;;5.90;2.13;;;;;;;1.18;100.00;100495.47;5113069;28;20050;-68
2022/01/22 09:31:40;;;;;;;3.30;2.00;;;;;;;1.22;100.00;100497.13;5113781;28;20100;-68
2022/01/22 09:34:09;;;;;;;4.10;1.88;;;;;;;1.25;100.00;100492.69;5113237;28;20389;-68
2022/01/22 09:36:38;;;;;;;5.00;1.98;;;;;;;1.23;100.00;100509.38;5113269;28;20093;-68
2022/01/22 09:39:07;;;;;;;6.45;2.63;;;;;;;1.23;100.00;100509.38;5113059;28;20042;-68
2022/01/22 09:41:36;;;;;;;4.00;2.30;;;;;;;1.22;100.00;100507.66;5113438;28;20047;-68
2022/01/22 09:44:25;;;;;;;3.95;2.13;;;;;;;1.22;100.00;100507.66;5113361;28;20472;-68
2022/01/22 09:46:54;;;;;;;3.70;2.13;;;;;;;1.23;100.00;100504.13;5113511;28;20040;-68
2022/01/22 09:49:22;;;;;;;5.55;2.45;;;;;;;1.34;100.00;100502.16;5113248;28;20457;-68
2022/01/22 09:51:50;;;;;;;4.90;2.13;;;;;;;1.33;100.00;100508.31;5113119;28;20485;-68
2022/01/22 09:54:20;;;;;;;3.60;2.03;;;;;;;1.43;100.00;100502.84;5112988;28;20122;-68
2022/01/22 09:56:48;;;;;;;5.00;2.17;;;;;;;1.42;100.00;100501.13;5113766;28;20048;-68
2022/01/22 09:59:17;;;;;;;4.65;2.35;;;;;;;1.43;100.00;100499.34;5112859;28;20047;-68
2022/01/22 10:01:45;;;;;;;3.53;1.67;;;;;;;1.44;100.00;100503.72;5113526;28;20392;-68
2022/01/22 10:04:14;;;;;;;4.03;2.22;;;;;;;1.38;100.00;100509.09;5095083;28;20056;-68
2022/01/22 10:06:53;;;;;;;3.22;1.73;;;;;;;1.43;100.00;100515.13;5112982;28;20066;-68
2022/01/22 10:09:28;;;;;;;2.80;1.60;;;;;;;1.54;100.00;100525.44;5113117;28;20044;-68
2022/01/22 10:12:10;;;;;;;3.60;2.15;;;;;;;1.52;100.00;100516.72;5113060;28;20151;-68
2022/01/22 10:15:04;;;;;;;4.15;1.92;;;;;;;1.58;100.00;100512.22;5113270;28;20096;-68
2022/01/22 10:17:46;;;;;;;4.10;2.00;;;;;;;1.54;100.00;100526.31;5114336;28;20040;-68
2022/01/22 10:20:37;;;;;;;5.05;1.90;;;;;;;1.43;99.24;100530.91;5116849;28;20074;-68
2022/01/22 10:23:17;;;;;;;3.60;1.83;;;;;;;1.47;100.00;100535.22;5116976;28;20484;-67
2022/01/22 10:25:54;;;;;;;4.70;2.17;;;;;;;1.47;99.42;100524.72;5116995;28;20046;-67
2022/01/22 10:28:24;;;;;;;4.03;1.70;;;;;;;1.58;98.78;100533.25;5116749;28;20050;-66
2022/01/22 10:30:58;;;;;;;4.28;1.95;;;;;;;1.50;97.39;100526.41;5116708;28;20047;-67
2022/01/22 10:33:29;;;;;;;3.22;1.70;;;;;;;1.49;98.97;100525.53;5116643;28;20044;-68
2022/01/22 10:36:11;;;;;;;5.03;1.90;;;;;;;1.49;97.63;100525.53;5116775;28;20111;-68
2022/01/22 10:38:41;;;;;;;4.38;1.98;;;;;;;1.56;97.58;100534.19;5117008;28;20043;-68
2022/01/22 10:41:11;;;;;;;5.22;1.88;;;;;;;1.64;96.69;100541.03;5116250;28;20571;-68
2022/01/22 10:43:51;;;;;;;4.30;2.42;;;;;;;1.62;95.69;100534.91;5116508;28;20050;-68
2022/01/22 10:46:31;;;;;;;4.70;2.08;;;;;;;1.62;96.60;100545.44;5116499;28;20043;-68
2022/01/22 10:49:01;;;;;;;2.42;1.55;;;;;;;1.62;96.38;100534.91;5116556;28;20040;-68
2022/01/22 10:51:30;;;;;;;4.53;2.00;;;;;;;1.63;97.80;100538.41;5115914;28;20043;-67
2022/01/22 10:54:00;;;;;;;5.75;2.20;;;;;;;1.75;98.66;100550.50;5116038;28;20043;-68
2022/01/22 10:56:32;;;;;;;4.97;2.20;;;;;;;1.72;98.15;100541.72;5116366;28;20051;-68
2022/01/22 10:59:02;;;;;;;4.88;1.98;;;;;;;1.89;95.60;100556.31;5116411;28;20040;-68
2022/01/22 11:01:32;;;;;;;4.47;1.77;;;;;;;1.91;91.19;100544.88;5116279;28;20042;-67
2022/01/22 11:04:10;;;;;;;5.75;1.75;;;;;;;1.93;81.01;100553.63;5116406;28;20438;-68
2022/01/22 11:06:40;;;;;;;4.30;1.30;;;;;;;2.05;65.82;100539.34;5116225;28;20047;-67
2022/01/22 11:09:09;;;;;;;2.35;1.35;;;;;;;2.14;55.03;100565.47;5115581;28;20104;-71
2022/01/22 11:11:40;;;;;;;4.75;1.20;;;;;;;2.16;49.10;100547.00;5116201;28;20476;-68
2022/01/22 11:14:14;;;;;;;4.90;1.17;;;;;;;2.20;45.13;100556.56;5115377;28;20477;-68
2022/01/22 11:16:45;;;;;;;3.60;1.40;;;;;;;2.26;46.43;100554.69;5116000;28;20042;-68
2022/01/22 11:19:17;;;;;;;7.65;1.77;;;;;;;2.39;45.62;100554.41;5115692;28;20063;-67
2022/01/22 11:21:49;;;;;;;2.53;1.30;;;;;;;2.46;46.65;100566.53;5115727;28;20067;-68
2022/01/22 11:24:19;;;;;;;4.03;2.17;;;;;;;2.32;52.37;100568.59;5097390;28;20099;-68
2022/01/22 11:26:51;;;;;;;6.63;1.90;;;;;;;2.30;52.58;100571.25;5115905;28;20052;-68
2022/01/22 11:29:23;;;;;;;3.08;1.63;;;;;;;2.28;51.63;100566.03;5115471;28;20043;-68
2022/01/22 11:31:54;;;;;;;12.98;2.30;;;;;;;2.34;53.07;100565.03;5115625;28;20069;-68
2022/01/22 11:34:27;;;;;;;3.10;1.52;;;;;;;2.33;50.32;100565.94;5115520;28;20040;-68
2022/01/22 11:37:07;;;;;;;5.97;1.90;;;;;;;2.37;48.41;100561.47;5115305;28;20050;-68
2022/01/22 11:39:36;;;;;;;2.85;1.50;;;;;;;2.49;46.85;100561.19;5115347;28;20043;-69
2022/01/22 11:42:07;;;;;;;2.42;1.25;;;;;;;2.45;47.11;100564.81;5115583;28;20035;-69
2022/01/22 11:44:46;;;;;;;3.80;1.30;;;;;;;2.43;47.92;100582.41;5115519;28;20053;-68
2022/01/22 11:47:17;;;;;;;6.55;2.20;;;;;;;2.34;51.16;100566.81;5115111;28;20047;-68
2022/01/22 11:50:06;;;;;;;4.47;1.58;;;;;;;2.31;50.96;100578.25;5114943;28;20054;-68
2022/01/22 11:52:38;;;;;;;3.83;1.50;;;;;;;2.26;50.10;100593.28;5115215;28;20468;-68
2022/01/22 11:55:12;;;;;;;9.40;2.03;;;;;;;2.29;51.70;100594.09;5115389;28;20040;-68
2022/01/22 11:57:43;;;;;;;4.65;1.98;;;;;;;2.32;51.89;100597.53;5115332;28;20474;-68
2022/01/22 12:00:21;;;;;;;3.40;1.75;;;;;;;2.30;52.32;100608.09;5115223;28;20051;-68
2022/01/22 12:03:20;;;;;;;4.53;1.83;;;;;;;2.17;52.05;100602.25;5115226;28;20043;-68
2022/01/22 12:06:10;;;;;;;3.22;1.40;;;;;;;2.17;53.22;100585.59;5115093;28;20043;-67
2022/01/22 12:09:04;;;;;;;3.75;1.60;;;;;;;2.18;52.44;100603.97;5115080;28;20072;-69
2022/01/22 12:14:57;;;;;;;3.92;1.95;;;;;;;2.18;51.80;100605.75;5114371;28;19923;-68
2022/01/22 12:18:00;;;;;;;2.95;1.50;;;;;;;2.15;50.79;100604.03;5114661;28;20118;-67
2022/01/22 12:23:51;;;;;;;2.40;1.27;;;;;;;2.16;49.71;100611.03;5114506;28;20050;-69
2022/01/22 12:26:54;;;;;;;3.30;1.65;;;;;;;2.23;49.51;100611.78;5114130;28;20044;-69
2022/01/22 12:29:37;;;;;;;3.45;1.67;;;;;;;2.20;49.07;100607.44;5114306;28;20163;-68
2022/01/22 12:32:27;;;;;;;3.13;1.60;;;;;;;2.19;49.28;100624.13;5114157;28;20051;-68
2022/01/22 12:35:05;;;;;;;2.70;1.42;;;;;;;2.19;48.19;100626.75;5114435;28;20036;-67
2022/01/22 12:37:39;;;;;;;2.28;1.15;;;;;;;2.16;47.29;100626.81;5114248;28;20097;-68
2022/01/22 12:40:09;;;;;;;4.45;1.40;;;;;;;2.15;47.03;100622.47;5113981;28;20536;-66
2022/01/22 12:43:02;;;;;;;4.28;1.50;;;;;;;2.22;47.18;100610.03;5114154;28;20045;-69
2022/01/22 12:45:31;;;;;;;4.72;1.63;;;;;;;2.20;48.36;100602.16;5114093;28;20048;-68
2022/01/22 12:48:02;;;;;;;3.80;1.75;;;;;;;2.20;47.14;100617.97;5114162;28;20094;-68
2022/01/22 12:50:35;;;;;;;2.95;1.45;;;;;;;2.26;47.19;100612.59;5114133;28;20050;-67
2022/01/22 12:53:13;;;;;;;4.85;1.70;;;;;;;2.24;47.12;100626.69;5096042;28;20104;-67
2022/01/22 12:58:39;;;;;;;4.22;1.65;;;;;;;2.27;47.13;100648.53;5113911;28;20989;-69
2022/01/22 13:01:18;;;;;;;3.05;1.67;;;;;;;2.25;46.68;100658.22;5114298;28;20039;-69
2022/01/22 13:03:51;;;;;;;4.82;1.90;;;;;;;2.22;46.69;100645.16;5114125;28;20111;-69
2022/01/22 13:06:20;;;;;;;3.25;1.40;;;;;;;2.21;46.56;100643.38;5113456;28;20487;-71